Time;durP1;ratioP1;P1;durP2;ratioP2;P2;SDS_P1;SDS_P2;PMS_P1;PMS_P2;Temp;Humidity;BMP_temperature;BMP_pressure;BME280_temperature;BME280_humidity;BME280_pressure;Samples;Min_cycle;Max_cycle;Signal;HPM_P1;HPM_P2
2022/12/29 00:00:00;;;;;;;0.55;0.32;;;;;;;10.28;98.04;100019.88;5056261;27;99247;-30
2022/12/29 00:02:25;;;;;;;1.42;0.73;;;;;;;10.28;98.00;100016.28;5054955;27;101378;-30
2022/12/29 00:04:50;;;;;;;1.33;0.77;;;;;;;10.30;97.70;100009.81;5056475;27;96491;-30
2022/12/29 00:07:16;;;;;;;1.92;0.50;;;;;;;10.31;97.71;99999.84;5056573;27;96813;-31
2022/12/29 00:09:42;;;;;;;1.70;0.60;;;;;;;10.35;97.67;99995.94;5055718;27;98050;-31
2022/12/29 00:12:07;;;;;;;2.08;1.10;;;;;;;10.36;96.78;99990.38;5055765;27;99159;-30
2022/12/29 00:17:16;;;;;;;2.45;0.50;;;;;;;10.39;96.05;99981.16;5054674;27;96645;-31
2022/12/29 00:36:21;;;;;;;2.42;0.93;;;;;;;10.47;95.64;99953.53;5055768;27;96677;-30
2022/12/29 00:44:19;;;;;;;1.10;0.50;;;;;;;10.39;96.18;99955.00;5055572;27;96859;-30
2022/12/29 00:46:44;;;;;;;0.57;0.55;;;;;;;10.39;95.89;99936.03;5055874;27;96715;-31
2022/12/29 00:49:30;;;;;;;2.38;0.68;;;;;;;10.35;96.81;99939.09;5055854;27;96749;-30
2022/12/29 00:52:01;;;;;;;0.65;0.30;;;;;;;10.27;98.66;99947.72;5055572;27;97938;-32
2022/12/29 00:54:29;;;;;;;0.70;0.47;;;;;;;10.21;99.00;99953.63;5054211;27;100667;-31
2022/12/29 00:56:54;;;;;;;2.40;1.00;;;;;;;10.17;99.78;99965.63;5055570;27;96523;-31
2022/12/29 00:59:20;;;;;;;1.27;0.32;;;;;;;10.10;100.00;99954.41;5055446;27;96933;-31
2022/12/29 01:01:46;;;;;;;0.77;0.55;;;;;;;10.06;100.00;99952.91;5054633;27;99745;-31
2022/12/29 01:04:12;;;;;;;1.15;0.20;;;;;;;9.99;100.00;99947.09;5053018;27;100790;-31
2022/12/29 01:06:39;;;;;;;0.63;0.25;;;;;;;9.96;100.00;99950.03;5055614;27;96606;-31
2022/12/29 01:11:49;;;;;;;1.95;0.60;;;;;;;9.93;100.00;99949.38;5055631;27;97039;-31
2022/12/29 01:14:16;;;;;;;0.10;0.10;;;;;;;9.91;100.00;99948.63;5053624;27;100708;-30
2022/12/29 01:16:41;;;;;;;3.50;0.55;;;;;;;9.92;100.00;99950.38;5055207;27;96560;-31
2022/12/29 01:19:06;;;;;;;1.15;0.30;;;;;;;9.91;100.00;99960.31;5055654;27;96825;-30
2022/12/29 01:21:33;;;;;;;0.35;0.28;;;;;;;9.91;100.00;99960.31;5054406;27;109594;-31
2022/12/29 01:23:58;;;;;;;0.40;0.20;;;;;;;9.88;100.00;99962.38;5053234;27;100915;-30
2022/12/29 01:26:23;;;;;;;0.55;0.32;;;;;;;9.92;100.00;99944.97;5054868;27;96618;-30
2022/12/29 01:28:48;;;;;;;0.60;0.50;;;;;;;9.90;100.00;99946.91;5055236;27;96789;-30
2022/12/29 01:31:15;;;;;;;1.35;0.60;;;;;;;9.90;100.00;99939.66;5054840;27;97902;-31
2022/12/29 01:33:41;;;;;;;0.28;0.28;;;;;;;9.89;100.00;99945.16;5053055;27;100651;-31
2022/12/29 01:36:09;;;;;;;0.30;0.30;;;;;;;9.91;100.00;99948.63;5053628;27;96742;-30
2022/12/29 01:38:36;;;;;;;0.30;0.20;;;;;;;9.90;100.00;99944.19;5053638;27;96885;-31
2022/12/29 01:41:02;;;;;;;0.28;0.22;;;;;;;9.90;100.00;99939.66;5053323;27;101155;-30
2022/12/29 01:43:42;;;;;;;3.20;0.38;;;;;;;9.89;100.00;99937.03;5053519;27;99173;-31
2022/12/29 01:46:14;;;;;;;0.47;0.40;;;;;;;9.90;100.00;99938.78;5053453;27;96892;-31
2022/12/29 01:48:39;;;;;;;2.42;0.30;;;;;;;9.84;100.00;99926.56;5053575;27;96941;-30
2022/12/29 01:51:05;;;;;;;1.48;0.38;;;;;;;9.83;100.00;99948.34;5054013;27;99184;-30
2022/12/29 01:53:34;;;;;;;0.57;0.30;;;;;;;9.82;100.00;99949.28;5054347;27;98631;-31
2022/12/29 01:56:04;;;;;;;1.48;0.35;;;;;;;9.82;100.00;99941.19;5053334;27;96659;-32
2022/12/29 01:58:37;;;;;;;0.40;0.30;;;;;;;9.82;100.00;99943.88;5053492;27;96809;-30
2022/12/29 02:01:02;;;;;;;3.38;0.50;;;;;;;9.79;100.00;99951.25;5053067;27;100872;-30
2022/12/29 02:03:31;;;;;;;0.82;0.45;;;;;;;9.78;100.00;99954.06;5054428;27;97939;-30
2022/12/29 02:06:10;;;;;;;0.60;0.20;;;;;;;9.78;100.00;99962.19;5054757;27;96633;-31
2022/12/29 02:08:37;;;;;;;1.88;0.52;;;;;;;9.75;100.00;99948.91;5053477;27;96735;-31
2022/12/29 02:11:03;;;;;;;0.43;0.30;;;;;;;9.76;100.00;99959.59;5052857;27;100576;-30
2022/12/29 02:13:28;;;;;;;4.35;0.40;;;;;;;9.77;100.00;99957.75;5054433;27;97355;-31
2022/12/29 02:16:27;;;;;;;0.20;0.10;;;;;;;9.78;100.00;99941.41;5054130;27;96447;-31
2022/12/29 02:19:27;;;;;;;0.25;0.10;;;;;;;9.79;100.00;99944.97;5058337;27;96586;-30
2022/12/29 02:22:10;;;;;;;0.10;0.10;;;;;;;9.77;100.00;99945.09;5057855;27;98018;-30
2022/12/29 02:24:54;;;;;;;2.38;0.43;;;;;;;9.75;100.00;99944.34;5057953;27;97893;-31
2022/12/29 02:27:36;;;;;;;0.45;0.22;;;;;;;9.76;100.00;99942.50;5056364;27;96721;-31
2022/12/29 02:30:28;;;;;;;0.75;0.30;;;;;;;9.75;99.55;99947.06;5058091;27;96671;-30
2022/12/29 02:33:33;;;;;;;0.08;0.00;;;;;;;9.75;99.27;99947.06;5056204;27;101071;-30
2022/12/29 02:36:19;;;;;;;1.63;0.40;;;;;;;9.74;99.19;99945.31;5056367;27;100855;-30
2022/12/29 02:38:59;;;;;;;0.10;0.10;;;;;;;9.75;99.39;99944.34;5056459;27;96607;-31
2022/12/29 02:41:33;;;;;;;2.65;0.50;;;;;;;9.75;98.46;99952.47;5057762;27;96712;-30
2022/12/29 02:44:05;;;;;;;3.10;0.47;;;;;;;9.76;98.45;99956.03;5055435;27;100781;-31
2022/12/29 02:46:41;;;;;;;1.48;0.30;;;;;;;9.73;98.15;99954.41;5057430;27;98300;-30
2022/12/29 02:49:15;;;;;;;5.22;0.25;;;;;;;9.66;97.96;99945.00;5056323;27;96653;-32
2022/12/29 02:51:52;;;;;;;3.17;0.63;;;;;;;9.63;98.14;99947.06;5057531;27;96977;-31
2022/12/29 02:57:02;;;;;;;3.58;0.40;;;;;;;9.61;97.29;99943.63;5057369;27;96524;-30
2022/12/29 02:59:28;;;;;;;0.00;0.00;;;;;;;9.62;97.40;99939.94;5057589;27;96504;-31
2022/12/29 03:02:18;;;;;;;5.00;0.65;;;;;;;9.60;97.04;99940.03;5056483;27;96798;-31
2022/12/29 03:04:53;;;;;;;3.03;0.52;;;;;;;9.59;97.16;99949.13;5057277;27;97912;-31
2022/12/29 03:07:25;;;;;;;2.90;0.50;;;;;;;9.59;96.54;99948.28;5055743;27;100735;-32
2022/12/29 03:10:21;;;;;;;1.58;0.50;;;;;;;9.62;97.05;99940.78;5056913;27;96556;-31
2022/12/29 03:16:24;;;;;;;0.50;0.40;;;;;;;9.62;96.70;99921.00;5057414;27;96943;-30
2022/12/29 03:18:52;;;;;;;2.50;0.55;;;;;;;9.61;96.61;99925.56;5055386;27;100832;-30
2022/12/29 03:24:25;;;;;;;0.45;0.15;;;;;;;9.55;96.84;99926.00;5057007;27;96836;-31
2022/12/29 03:26:54;;;;;;;0.68;0.50;;;;;;;9.54;96.89;99924.28;5055491;27;100925;-30
2022/12/29 03:29:20;;;;;;;0.38;0.10;;;;;;;9.52;97.17;99937.03;5055339;27;100263;-30
2022/12/29 03:31:48;;;;;;;0.40;0.30;;;;;;;9.52;97.01;99937.88;5057244;27;97300;-32
2022/12/29 03:34:17;;;;;;;0.00;0.00;;;;;;;9.47;97.16;99926.53;5055231;27;96847;-31
2022/12/29 03:36:48;;;;;;;2.65;0.28;;;;;;;9.49;96.84;99932.72;5054581;27;101228;-31
2022/12/29 03:39:15;;;;;;;1.47;0.20;;;;;;;9.48;96.99;99928.25;5055149;27;100624;-30
2022/12/29 03:41:44;;;;;;;0.57;0.20;;;;;;;9.46;97.11;99935.66;5055462;27;96724;-30
2022/12/29 03:44:10;;;;;;;0.30;0.28;;;;;;;9.47;97.25;99942.75;5055402;27;96839;-31
2022/12/29 03:46:36;;;;;;;0.93;0.35;;;;;;;9.49;96.91;99948.06;5054903;27;100575;-30
2022/12/29 03:49:01;;;;;;;0.47;0.20;;;;;;;9.48;96.44;99941.78;5056745;27;97192;-30
2022/12/29 03:51:26;;;;;;;1.85;0.20;;;;;;;9.49;96.56;99942.66;5056708;27;96428;-30
2022/12/29 03:53:52;;;;;;;2.45;0.50;;;;;;;9.50;96.10;99958.75;5057054;27;96518;-31
2022/12/29 03:56:17;;;;;;;0.40;0.20;;;;;;;9.55;95.92;99955.72;5056382;27;97727;-30
2022/12/29 03:58:42;;;;;;;2.78;0.65;;;;;;;9.57;95.41;99954.63;5056368;27;99703;-30
2022/12/29 04:01:08;;;;;;;0.28;0.10;;;;;;;9.57;95.19;99949.22;5056038;27;96654;-31
2022/12/29 04:03:33;;;;;;;4.38;0.68;;;;;;;9.57;94.15;99943.81;5056540;27;96811;-30
2022/12/29 04:05:59;;;;;;;3.03;0.70;;;;;;;9.57;94.67;99954.63;5056118;27;97871;-30
2022/12/29 04:08:24;;;;;;;1.77;0.30;;;;;;;9.59;94.48;99949.13;5056228;27;97497;-30
2022/12/29 04:10:50;;;;;;;1.80;0.52;;;;;;;9.52;94.06;99950.56;5056143;27;96527;-31
2022/12/29 04:13:15;;;;;;;1.98;0.45;;;;;;;9.51;94.17;99952.41;5056424;27;97155;-30
2022/12/29 04:15:43;;;;;;;3.10;0.43;;;;;;;9.46;94.31;99964.50;5055666;27;97945;-30
2022/12/29 04:18:08;;;;;;;1.90;0.50;;;;;;;9.40;94.46;99964.94;5054886;27;100187;-31
2022/12/29 04:23:17;;;;;;;1.52;0.13;;;;;;;9.22;95.74;99940.06;5055581;27;96565;-30
2022/12/29 04:25:46;;;;;;;0.05;0.00;;;;;;;9.15;95.97;99945.03;5055323;27;101450;-30
2022/12/29 04:28:11;;;;;;;1.65;0.38;;;;;;;9.07;96.45;99956.38;5054086;27;100726;-31
2022/12/29 04:30:36;;;;;;;1.35;0.22;;;;;;;9.01;96.61;99945.13;5055952;27;96589;-30
2022/12/29 04:33:02;;;;;;;1.00;0.50;;;;;;;8.93;97.09;99951.94;5055991;27;97466;-30
2022/12/29 04:35:27;;;;;;;2.00;0.50;;;;;;;8.92;97.04;99949.38;5055609;27;97997;-31
2022/12/29 04:37:52;;;;;;;0.98;0.40;;;;;;;8.91;96.97;99964.72;5055393;27;102657;-30
2022/12/29 04:40:18;;;;;;;0.57;0.38;;;;;;;8.94;97.01;99963.63;5055406;27;96441;-30
2022/12/29 04:42:43;;;;;;;0.77;0.17;;;;;;;8.90;96.92;99951.31;5055622;27;100942;-30
2022/12/29 04:45:09;;;;;;;0.55;0.05;;;;;;;8.92;96.70;99942.13;5055145;27;112276;-31
2022/12/29 04:47:34;;;;;;;0.30;0.17;;;;;;;8.97;96.81;99954.44;5055605;27;97059;-30
2022/12/29 04:49:59;;;;;;;0.93;0.30;;;;;;;8.98;96.46;99953.47;5055434;27;96431;-30
2022/12/29 04:52:25;;;;;;;2.15;0.55;;;;;;;8.99;96.54;99958.78;5055579;27;96669;-30
2022/12/29 04:54:50;;;;;;;7.38;0.73;;;;;;;9.02;96.26;99969.34;5055183;27;102589;-31
2022/12/29 04:57:15;;;;;;;8.63;0.60;;;;;;;9.03;95.91;99973.78;5055074;27;100666;-30
2022/12/29 04:59:41;;;;;;;1.98;0.65;;;;;;;9.04;96.11;99977.38;5055454;27;96473;-31
2022/12/29 05:02:06;;;;;;;1.15;0.40;;;;;;;9.05;96.08;99968.28;5055868;27;96773;-31
2022/12/29 05:04:31;;;;;;;3.55;0.35;;;;;;;9.04;96.20;99966.56;5055114;27;99890;-30
2022/12/29 05:06:57;;;;;;;2.17;0.50;;;;;;;9.04;96.16;99974.66;5055388;27;99354;-32
2022/12/29 05:09:23;;;;;;;0.17;0.13;;;;;;;9.03;96.11;99979.16;5055569;27;96540;-31
2022/12/29 05:11:49;;;;;;;0.35;0.15;;;;;;;9.04;95.90;99969.25;5053868;27;97828;-30
2022/12/29 05:14:14;;;;;;;10.93;0.90;;;;;;;9.04;95.93;99974.66;5054063;27;104685;-31
2022/12/29 05:16:39;;;;;;;1.58;0.35;;;;;;;9.04;95.84;99974.66;5055189;27;97799;-31
2022/12/29 05:19:05;;;;;;;0.98;0.47;;;;;;;9.04;95.44;99985.47;5055181;27;96621;-30
2022/12/29 05:21:30;;;;;;;1.70;0.43;;;;;;;9.05;95.30;99989.88;5054835;27;96836;-32
2022/12/29 05:23:55;;;;;;;0.47;0.32;;;;;;;9.03;95.27;99992.69;5054464;27;107070;-31
2022/12/29 05:26:20;;;;;;;5.55;1.35;;;;;;;9.04;94.75;99993.56;5054922;27;104259;-32
2022/12/29 05:28:46;;;;;;;3.13;0.43;;;;;;;9.04;94.29;99986.31;5055159;27;96544;-30
2022/12/29 05:31:11;;;;;;;4.20;0.47;;;;;;;9.07;94.32;99996.91;5055580;27;96719;-31
2022/12/29 05:33:36;;;;;;;2.97;0.80;;;;;;;9.09;94.35;100004.91;5054435;27;99202;-30
2022/12/29 05:36:09;;;;;;;3.05;0.70;;;;;;;9.04;95.05;100001.69;5054823;27;97558;-31
2022/12/29 05:38:34;;;;;;;5.78;0.60;;;;;;;9.03;95.33;100002.63;5053108;27;96524;-30
2022/12/29 05:41:00;;;;;;;5.82;1.17;;;;;;;8.96;95.53;100009.41;5055166;27;96724;-31
2022/12/29 05:43:25;;;;;;;3.00;0.25;;;;;;;8.95;95.75;100008.56;5054614;27;98004;-32
2022/12/29 05:45:52;;;;;;;0.55;0.20;;;;;;;8.92;96.30;99998.84;5054829;27;97433;-30
2022/12/29 05:48:17;;;;;;;0.73;0.25;;;;;;;8.90;96.08;100003.47;5053640;27;96599;-30
2022/12/29 05:50:46;;;;;;;4.68;1.05;;;;;;;8.88;95.96;99993.75;5055709;27;96767;-31
2022/12/29 05:53:11;;;;;;;3.22;0.60;;;;;;;8.85;95.79;99996.66;5058516;27;97235;-33
2022/12/29 05:55:37;;;;;;;7.93;0.50;;;;;;;8.85;96.17;99994.81;5057990;27;104947;-30
2022/12/29 05:58:02;;;;;;;1.17;0.30;;;;;;;8.86;95.69;100004.66;5058365;27;96418;-31
2022/12/29 06:00:27;;;;;;;3.25;0.88;;;;;;;8.82;96.07;100022.03;5058581;27;96856;-30
2022/12/29 06:02:52;;;;;;;3.60;0.60;;;;;;;8.82;95.98;100030.16;5057144;27;104569;-31
2022/12/29 06:05:18;;;;;;;3.70;0.55;;;;;;;8.82;96.18;100031.97;5057978;27;103101;-31
2022/12/29 06:07:44;;;;;;;2.05;0.60;;;;;;;8.77;95.82;100026.00;5058243;27;96455;-31
2022/12/29 06:10:09;;;;;;;1.30;0.20;;;;;;;8.72;95.95;100023.63;5058211;27;96738;-30
2022/12/29 06:12:35;;;;;;;2.28;0.85;;;;;;;8.75;96.08;100028.81;5057888;27;98947;-30
2022/12/29 06:15:00;;;;;;;1.08;0.57;;;;;;;8.75;95.86;100041.44;5058050;27;97342;-32
2022/12/29 06:17:25;;;;;;;2.05;0.60;;;;;;;8.75;95.40;100028.81;5057910;27;96478;-31
2022/12/29 06:19:51;;;;;;;7.95;0.85;;;;;;;8.73;94.31;100022.66;5058298;27;96808;-30
2022/12/29 06:22:16;;;;;;;0.57;0.30;;;;;;;8.77;94.63;100026.91;5056934;27;97432;-30
2022/12/29 06:24:41;;;;;;;2.15;0.70;;;;;;;8.78;94.08;100016.97;5056286;27;100669;-30
2022/12/29 06:27:07;;;;;;;2.55;0.50;;;;;;;8.76;93.78;100041.34;5057433;27;96500;-30
2022/12/29 06:29:32;;;;;;;1.30;0.55;;;;;;;8.72;93.81;100029.00;5058050;27;96825;-31
2022/12/29 06:31:58;;;;;;;12.57;0.82;;;;;;;8.73;93.46;100021.81;5057605;27;97944;-30
2022/12/29 06:34:24;;;;;;;5.50;0.85;;;;;;;8.70;93.25;100039.94;5057378;27;97926;-31
2022/12/29 06:36:50;;;;;;;1.35;0.30;;;;;;;8.74;92.57;100032.47;5056247;27;96658;-31
2022/12/29 06:39:15;;;;;;;1.42;0.75;;;;;;;8.75;91.96;100030.63;5058081;27;96717;-31
2022/12/29 06:41:40;;;;;;;0.85;0.20;;;;;;;8.69;92.68;100040.03;5057218;27;99303;-33
2022/12/29 06:44:06;;;;;;;1.15;0.45;;;;;;;8.61;92.50;100024.34;5057611;27;99181;-30
2022/12/29 06:46:31;;;;;;;3.50;0.30;;;;;;;8.58;92.96;100034.47;5057841;27;96905;-30
2022/12/29 06:48:56;;;;;;;0.73;0.20;;;;;;;8.52;93.04;100029.50;5057870;27;96791;-31
2022/12/29 06:51:22;;;;;;;3.63;0.90;;;;;;;8.49;93.60;100041.38;5056901;27;97886;-30
2022/12/29 06:53:47;;;;;;;1.15;0.65;;;;;;;8.45;93.73;100035.28;5055803;27;98356;-31
2022/12/29 06:56:12;;;;;;;0.10;0.10;;;;;;;8.39;94.03;100026.69;5057232;27;97210;-31
2022/12/29 06:58:38;;;;;;;0.88;0.35;;;;;;;8.37;94.24;100045.69;5057769;27;96860;-30
2022/12/29 07:01:03;;;;;;;0.43;0.38;;;;;;;8.37;94.06;100047.53;5057408;27;97949;-30
2022/12/29 07:03:28;;;;;;;2.05;0.70;;;;;;;8.37;94.12;100053.78;5056144;27;99219;-30
2022/12/29 07:05:54;;;;;;;3.30;0.40;;;;;;;8.35;94.37;100044.06;5057558;27;96729;-32
2022/12/29 07:08:20;;;;;;;4.28;0.45;;;;;;;8.35;94.19;100038.69;5057538;27;96806;-30
2022/12/29 07:10:46;;;;;;;1.27;0.45;;;;;;;8.37;94.45;100053.78;5055422;27;101572;-32
2022/12/29 07:13:11;;;;;;;2.10;0.65;;;;;;;8.37;94.44;100058.34;5056959;27;97911;-31
2022/12/29 07:15:37;;;;;;;9.68;1.13;;;;;;;8.38;94.52;100046.56;5056594;27;96651;-31
2022/12/29 07:18:03;;;;;;;0.65;0.35;;;;;;;8.41;94.51;100062.56;5055685;27;96581;-31
2022/12/29 07:20:29;;;;;;;4.45;0.40;;;;;;;8.38;94.59;100058.22;5055292;27;100931;-33
2022/12/29 07:22:54;;;;;;;8.20;0.65;;;;;;;8.37;94.26;100056.50;5054919;27;101255;-30
2022/12/29 07:25:20;;;;;;;1.45;0.68;;;;;;;8.43;94.04;100061.50;5055589;27;96745;-31
2022/12/29 07:27:45;;;;;;;4.15;0.68;;;;;;;8.45;94.27;100048.78;5057388;27;96755;-30
2022/12/29 07:30:11;;;;;;;4.03;0.65;;;;;;;8.46;93.63;100055.03;5056886;27;98147;-33
2022/12/29 07:32:36;;;;;;;0.22;0.20;;;;;;;8.48;93.17;100053.09;5057027;27;97285;-30
2022/12/29 07:35:02;;;;;;;3.85;0.65;;;;;;;8.49;93.41;100060.25;5056730;27;96663;-30
2022/12/29 07:37:28;;;;;;;2.22;0.45;;;;;;;8.49;93.03;100061.13;5055538;27;96911;-30
2022/12/29 07:39:53;;;;;;;0.03;0.03;;;;;;;8.53;92.79;100044.72;5055870;27;99215;-30
2022/12/29 07:42:18;;;;;;;1.15;0.50;;;;;;;8.56;92.37;100041.84;5056325;27;105400;-30
2022/12/29 07:44:44;;;;;;;2.40;0.82;;;;;;;8.59;92.36;100055.13;5057026;27;96545;-30
2022/12/29 07:47:09;;;;;;;1.42;0.45;;;;;;;8.57;91.76;100044.41;5056634;27;96845;-32
2022/12/29 07:49:34;;;;;;;6.03;1.33;;;;;;;8.63;91.49;100052.13;5056426;27;97952;-31
2022/12/29 07:52:00;;;;;;;3.00;0.98;;;;;;;8.64;91.42;100048.44;5056527;27;98214;-30
2022/12/29 07:54:25;;;;;;;2.55;0.80;;;;;;;8.67;90.53;100050.06;5056420;27;96715;-32
2022/12/29 07:56:51;;;;;;;9.68;0.93;;;;;;;8.71;90.36;100065.09;5056749;27;96806;-30
2022/12/29 07:59:16;;;;;;;6.43;0.65;;;;;;;8.71;90.80;100065.09;5056302;27;97903;-31
2022/12/29 08:01:41;;;;;;;1.77;0.40;;;;;;;8.70;89.60;100055.28;5056259;27;97818;-31
2022/12/29 08:04:07;;;;;;;4.07;0.75;;;;;;;8.75;89.97;100057.63;5054512;27;96616;-31
2022/12/29 08:06:32;;;;;;;8.18;1.00;;;;;;;8.79;89.05;100048.38;5056366;27;96791;-30
2022/12/29 08:08:58;;;;;;;2.70;0.80;;;;;;;8.79;88.34;100057.34;5055950;27;97846;-31
2022/12/29 08:11:24;;;;;;;0.68;0.40;;;;;;;8.76;87.82;100062.94;5055934;27;99094;-30
2022/12/29 08:13:49;;;;;;;6.20;1.35;;;;;;;8.81;88.39;100059.94;5055542;27;96431;-30
2022/12/29 08:16:15;;;;;;;2.55;0.30;;;;;;;8.82;88.40;100056.25;5056185;27;96753;-31
2022/12/29 08:18:40;;;;;;;5.50;0.90;;;;;;;8.83;88.68;100068.81;5056167;27;97450;-30
2022/12/29 08:21:06;;;;;;;4.68;0.73;;;;;;;8.85;88.55;100075.84;5056150;27;99272;-30
2022/12/29 08:23:31;;;;;;;3.22;0.50;;;;;;;8.82;89.11;100062.56;5055518;27;96674;-31
2022/12/29 08:26:02;;;;;;;2.88;0.63;;;;;;;8.79;89.69;100078.06;5054723;27;96933;-31
2022/12/29 08:28:27;;;;;;;1.60;0.65;;;;;;;8.78;89.42;100085.31;5053774;27;100893;-31
2022/12/29 08:30:53;;;;;;;2.00;0.93;;;;;;;8.76;89.92;100087.25;5055582;27;99473;-30
2022/12/29 08:33:19;;;;;;;3.03;0.65;;;;;;;8.70;90.58;100106.56;5056285;27;96592;-30
2022/12/29 08:35:44;;;;;;;3.55;0.82;;;;;;;8.69;91.26;100110.22;5055682;27;96876;-31
2022/12/29 08:38:11;;;;;;;2.45;0.38;;;;;;;8.65;91.60;100105.97;5055507;27;98076;-31
2022/12/29 08:40:37;;;;;;;0.93;0.17;;;;;;;8.62;92.15;100114.28;5054022;27;101711;-30
2022/12/29 08:43:02;;;;;;;4.63;0.40;;;;;;;8.56;93.07;100098.50;5055983;27;96534;-30
2022/12/29 08:45:27;;;;;;;4.85;0.43;;;;;;;8.55;92.96;100097.63;5056552;27;96810;-31
2022/12/29 08:47:52;;;;;;;1.23;0.50;;;;;;;8.49;93.15;100108.84;5055298;27;107745;-31
2022/12/29 08:50:18;;;;;;;5.47;0.88;;;;;;;8.48;93.38;100126.84;5055165;27;109467;-31
2022/12/29 08:52:43;;;;;;;7.18;0.68;;;;;;;8.52;93.31;100123.97;5055187;27;96702;-30
2022/12/29 08:55:09;;;;;;;2.88;0.60;;;;;;;8.48;93.64;100129.53;5055463;27;96873;-30
2022/12/29 08:57:34;;;;;;;2.42;0.55;;;;;;;8.47;94.06;100135.06;5055109;27;99494;-31
2022/12/29 08:59:59;;;;;;;2.35;0.47;;;;;;;8.42;94.28;100129.94;5055523;27;97756;-32
2022/12/29 09:02:24;;;;;;;7.20;0.63;;;;;;;8.43;94.63;100131.66;5055443;27;97734;-31
2022/12/29 09:04:50;;;;;;;4.07;1.35;;;;;;;8.42;94.70;100147.97;5055480;27;96940;-30
2022/12/29 09:07:15;;;;;;;2.83;0.90;;;;;;;8.42;94.95;100164.16;5055071;27;98908;-31
2022/12/29 09:09:41;;;;;;;6.55;1.00;;;;;;;8.37;95.18;100164.44;5055292;27;104073;-30
2022/12/29 09:12:06;;;;;;;2.53;0.68;;;;;;;8.35;95.44;100158.25;5055554;27;96670;-31
2022/12/29 09:14:31;;;;;;;0.65;0.22;;;;;;;8.34;95.94;100161.91;5055361;27;96845;-30
2022/12/29 09:19:40;;;;;;;1.00;0.40;;;;;;;8.39;96.24;100161.63;5055230;27;96994;-32
2022/12/29 09:22:06;;;;;;;1.02;0.35;;;;;;;8.36;96.57;100165.38;5054581;27;96675;-32
2022/12/29 09:24:31;;;;;;;1.45;0.88;;;;;;;8.38;96.33;100176.09;5053879;27;96894;-30
2022/12/29 09:26:56;;;;;;;2.13;0.70;;;;;;;8.40;96.15;100185.00;5054450;27;99017;-31
2022/12/29 09:29:22;;;;;;;3.97;0.75;;;;;;;8.43;96.33;100192.88;5055093;27;97797;-30
2022/12/29 09:31:47;;;;;;;0.85;0.55;;;;;;;8.44;96.65;100191.94;5054155;27;96531;-32
2022/12/29 09:34:13;;;;;;;5.45;0.88;;;;;;;8.43;96.61;100201.84;5055398;27;96756;-31
2022/12/29 09:36:38;;;;;;;1.73;0.65;;;;;;;8.47;96.44;100194.44;5054644;27;97537;-32
2022/12/29 09:39:03;;;;;;;0.60;0.20;;;;;;;8.47;96.54;100203.38;5055253;27;97265;-30
2022/12/29 09:41:38;;;;;;;0.80;0.35;;;;;;;8.46;96.99;100203.47;5054364;27;96548;-30
2022/12/29 09:44:20;;;;;;;0.93;0.30;;;;;;;8.49;96.59;100225.75;5053746;27;96742;-32
2022/12/29 09:46:51;;;;;;;0.38;0.20;;;;;;;8.48;96.93;100224.00;5053335;27;100734;-33
2022/12/29 09:49:20;;;;;;;2.45;0.65;;;;;;;8.50;96.89;100224.78;5053277;27;101387;-31
2022/12/29 09:51:51;;;;;;;3.85;0.52;;;;;;;8.52;97.05;100237.31;5053512;27;96574;-32
2022/12/29 09:54:34;;;;;;;0.85;0.70;;;;;;;8.52;97.21;100227.38;5053559;27;96513;-30
2022/12/29 09:57:00;;;;;;;1.08;0.50;;;;;;;8.51;97.42;100228.38;5054414;27;97486;-30
2022/12/29 09:59:52;;;;;;;0.50;0.50;;;;;;;8.53;97.59;100244.44;5054737;27;97291;-30
2022/12/29 10:02:31;;;;;;;0.75;0.60;;;;;;;8.55;97.94;100245.22;5053368;27;96605;-31
2022/12/29 10:04:56;;;;;;;6.05;1.13;;;;;;;8.54;97.78;100254.28;5053402;27;96772;-31
2022/12/29 10:07:38;;;;;;;2.58;0.90;;;;;;;8.56;98.27;100255.06;5054095;27;97908;-30
2022/12/29 10:10:39;;;;;;;0.75;0.57;;;;;;;8.59;98.57;100271.06;5053068;27;98952;-30
2022/12/29 10:13:23;;;;;;;1.70;0.77;;;;;;;8.58;98.53;100266.63;4981251;27;96896;-30
2022/12/29 10:16:13;;;;;;;3.58;1.30;;;;;;;8.61;98.61;100278.09;5054921;27;96606;-31
2022/12/29 10:18:51;;;;;;;5.07;0.50;;;;;;;8.64;98.58;100279.75;5052810;27;100886;-31
2022/12/29 10:21:38;;;;;;;9.43;1.02;;;;;;;8.66;98.31;100297.56;5054222;27;97537;-31
2022/12/29 10:24:06;;;;;;;0.55;0.25;;;;;;;8.68;98.43;100297.50;5053809;27;96716;-30
2022/12/29 10:26:38;;;;;;;6.70;1.10;;;;;;;8.71;98.41;100306.25;5053350;27;96910;-31
2022/12/29 10:29:11;;;;;;;1.17;0.55;;;;;;;8.73;98.03;100310.72;5052785;27;100928;-30
2022/12/29 10:32:00;;;;;;;3.20;0.82;;;;;;;8.79;97.84;100321.09;5052706;27;100654;-30
2022/12/29 10:34:31;;;;;;;3.72;0.70;;;;;;;8.79;97.97;100321.09;5053717;27;96839;-33
2022/12/29 10:37:17;;;;;;;3.65;0.90;;;;;;;8.84;97.81;100319.88;5052713;27;96684;-31
2022/12/29 10:39:50;;;;;;;5.82;1.20;;;;;;;8.88;97.66;100328.63;5056148;27;101148;-30
2022/12/29 10:42:26;;;;;;;3.20;0.70;;;;;;;8.86;97.90;100319.75;5056035;27;98945;-31
2022/12/29 10:44:53;;;;;;;2.25;0.35;;;;;;;8.81;97.22;100317.34;5056375;27;96704;-30
2022/12/29 10:47:23;;;;;;;1.08;0.43;;;;;;;8.82;97.26;100332.59;5056107;27;96975;-32
2022/12/29 10:49:49;;;;;;;7.43;0.98;;;;;;;8.81;97.41;100338.09;5057493;27;98227;-31
2022/12/29 10:52:17;;;;;;;10.43;0.90;;;;;;;8.80;97.32;100339.91;5056393;27;101323;-31
2022/12/29 10:55:02;;;;;;;7.72;1.40;;;;;;;8.76;97.73;100332.97;5039226;27;96713;-30
2022/12/29 10:57:37;;;;;;;6.32;1.23;;;;;;;8.76;97.72;100345.59;5055963;27;96880;-31
2022/12/29 11:00:16;;;;;;;3.47;0.52;;;;;;;8.76;97.46;100351.88;5055037;27;101029;-32
2022/12/29 11:02:50;;;;;;;5.40;1.42;;;;;;;8.80;97.72;100355.25;5057761;27;97429;-30
2022/12/29 11:05:34;;;;;;;0.95;0.57;;;;;;;8.86;97.68;100384.56;5057625;27;96438;-31
2022/12/29 11:08:03;;;;;;;2.58;1.05;;;;;;;8.88;97.62;100379.94;5057307;27;96909;-30
2022/12/29 11:10:35;;;;;;;6.63;1.38;;;;;;;8.93;97.45;100388.63;5055349;27;100826;-30
2022/12/29 11:13:04;;;;;;;5.03;1.17;;;;;;;8.99;97.42;100390.09;5057600;27;97290;-31
2022/12/29 11:15:41;;;;;;;1.45;0.70;;;;;;;9.01;97.44;100396.25;5055868;27;96588;-31
2022/12/29 11:18:22;;;;;;;6.10;1.25;;;;;;;9.04;97.52;100385.28;5056044;27;96913;-30
2022/12/29 11:20:49;;;;;;;4.60;1.40;;;;;;;9.12;97.23;100391.91;5055175;27;101025;-30
2022/12/29 11:23:25;;;;;;;4.75;0.73;;;;;;;9.22;96.72;100392.19;5056514;27;97278;-31
2022/12/29 11:26:05;;;;;;;2.13;0.70;;;;;;;9.49;96.22;100397.69;5055105;27;96609;-30
2022/12/29 11:28:33;;;;;;;6.78;0.68;;;;;;;9.60;95.75;100388.88;5055736;27;96732;-30
2022/12/29 11:31:04;;;;;;;14.07;1.25;;;;;;;9.56;95.14;100403.59;5055191;27;100963;-31
2022/12/29 11:33:31;;;;;;;3.40;0.67;;;;;;;9.49;95.20;100389.59;5054961;27;98858;-31
2022/12/29 11:36:01;;;;;;;6.78;1.23;;;;;;;9.48;95.30;100401.34;5055486;27;96589;-31
2022/12/29 11:38:36;;;;;;;3.03;1.00;;;;;;;9.48;95.36;100403.19;5055548;27;96850;-31
2022/12/29 11:41:03;;;;;;;2.08;0.63;;;;;;;9.49;95.35;100402.25;5056472;27;98905;-30
2022/12/29 11:43:39;;;;;;;3.38;0.75;;;;;;;9.64;95.23;100412.06;5055287;27;100723;-30
2022/12/29 11:46:05;;;;;;;4.80;1.20;;;;;;;9.76;94.81;100411.25;5055328;27;96532;-31
2022/12/29 11:48:40;;;;;;;1.38;0.77;;;;;;;9.81;94.17;100407.38;5056567;27;96866;-31
2022/12/29 11:51:07;;;;;;;2.85;0.88;;;;;;;9.68;93.93;100401.91;5054549;27;100936;-32
2022/12/29 11:53:48;;;;;;;6.63;0.93;;;;;;;9.60;93.84;100394.28;5054917;27;101177;-30
2022/12/29 11:56:19;;;;;;;1.13;0.40;;;;;;;9.57;94.35;100411.56;5054816;27;96632;-31
2022/12/29 11:58:47;;;;;;;5.07;1.27;;;;;;;9.55;94.13;100418.03;5055236;27;96812;-31
2022/12/29 12:01:26;;;;;;;5.78;0.85;;;;;;;9.54;93.42;100422.59;5054777;27;101118;-31
2022/12/29 12:04:00;;;;;;;2.58;1.10;;;;;;;9.54;93.71;100410.91;5056160;27;99323;-33
2022/12/29 12:06:29;;;;;;;3.70;0.98;;;;;;;9.53;93.20;100419.97;5056343;27;96641;-30
2022/12/29 12:09:00;;;;;;;4.00;0.63;;;;;;;9.52;93.12;100413.72;5055387;27;96849;-31
2022/12/29 12:11:36;;;;;;;1.63;0.45;;;;;;;9.56;93.31;100417.09;5054751;27;100995;-30
2022/12/29 12:14:16;;;;;;;0.17;0.17;;;;;;;9.53;92.63;100407.34;5056319;27;97876;-31
2022/12/29 12:16:52;;;;;;;2.65;0.63;;;;;;;9.54;92.06;100411.78;5054255;27;96666;-31
2022/12/29 12:19:43;;;;;;;2.97;0.80;;;;;;;9.54;92.26;100417.19;5054901;27;96715;-30
2022/12/29 12:22:31;;;;;;;3.95;0.88;;;;;;;9.63;91.81;100425.66;5053946;27;101263;-30
2022/12/29 12:25:02;;;;;;;8.15;1.00;;;;;;;9.73;91.27;100432.22;5055862;27;99318;-30